Terminal Aerodrome Forecast
Issued by NWS

Home | Current Version | Previous Version | Graphics & Text | Print | Product List | Glossary On
Versions: 1 2 3 4 5 6 7 8 9 10 11 12 13 14 15 16 17 18 19 20 21 22 23 24 25 26 27 28 29 30 31 32 33 34 35 36 37 38
791
FTUS43 KGRB 221439 AAA
TAFATW
TAF AMD
KATW 221439Z 2215/2312 22003KT 1/4SM -DZ FG VV002
     FM221900 22003KT 1/2SM -DZ FG OVC003
     FM222100 VRB03KT 1SM BR OVC004
     FM230100 29003KT 1/2SM FG OVC003=

USA.gov is the U.S. government's official web portal to all federal, state and local government web resources and services.